Intercession City, Florida
Current Conditions -  °F | °C
As of 8:50 PM on Saturday 20 Dec 2014 (Local Time) from KISM Reporting Station
Clear Clear  
Wind Chill: 19°   Ceiling: Unl
Heat Index: 19°   Visibility: 10mi
Dew Point: 18°   Wind: 6mph
Humidity: 94%   Direction: 100°E
Pressure: 30.09"   Gusts: NA
Location:  28.26°N, 81.51°W
Report Text: KISM 210150Z 10005KT 10SM SKC 19/18 A3009
Loading
Personal Weather Stations






























Interactive Weather Map New forecast layout! Learn more

10-Day Weather Forecast

Advertisements
Track Severe Weather on mobile